createdAt,value
2019-04-21T00:00:33.506Z,48.60
2019-04-21T00:03:13.157Z,48.60
2019-04-21T00:05:52.685Z,48.60
2019-04-21T00:08:33.692Z,48.80
2019-04-21T00:10:57.412Z,48.60
2019-04-21T00:13:18.975Z,48.40
2019-04-21T00:15:43.628Z,48.60
2019-04-21T00:18:16.133Z,48.80
2019-04-21T00:20:50.161Z,49.30
2019-04-21T00:23:32.895Z,49.40
2019-04-21T00:25:59.593Z,49.60
2019-04-21T00:28:47.475Z,49.80
2019-04-21T00:31:06.492Z,50.00
2019-04-21T00:33:22.965Z,50.10
2019-04-21T00:35:56.297Z,50.50
2019-04-21T00:38:49.084Z,50.70
2019-04-21T00:41:08.913Z,51.10
2019-04-21T00:43:32.928Z,51.40
2019-04-21T00:45:57.417Z,51.60
2019-04-21T00:48:44.080Z,51.90
2019-04-21T00:53:51.879Z,52.70
2019-04-21T00:56:34.406Z,52.90
2019-04-21T00:58:48.643Z,53.10
2019-04-21T01:01:15.096Z,53.30
2019-04-21T01:03:55.120Z,53.60
2019-04-21T01:06:22.427Z,54.00
2019-04-21T01:08:45.722Z,54.50
2019-04-21T01:11:19.754Z,54.60
2019-04-21T01:13:56.719Z,55.10
2019-04-21T01:16:25.670Z,55.20
2019-04-21T01:18:51.936Z,55.40
2019-04-21T01:20:58.157Z,55.70
2019-04-21T01:23:27.539Z,56.30
2019-04-21T01:26:13.109Z,56.80
2019-04-21T01:28:40.651Z,56.90
2019-04-21T01:31:15.461Z,57.00
2019-04-21T01:33:50.558Z,56.70
2019-04-21T01:36:16.848Z,56.20
2019-04-21T01:38:58.318Z,56.50
2019-04-21T01:41:21.284Z,56.50
2019-04-21T01:43:45.171Z,56.90
2019-04-21T01:46:14.132Z,57.10
2019-04-21T01:48:44.376Z,57.10
2019-04-21T01:51:15.780Z,57.20
2019-04-21T01:53:55.073Z,57.50
2019-04-21T01:56:30.278Z,58.00
2019-04-21T01:58:51.735Z,58.30
2019-04-21T02:01:35.988Z,58.60
2019-04-21T02:03:59.928Z,58.90
2019-04-21T02:06:41.097Z,59.50
2019-04-21T02:08:57.906Z,60.00
2019-04-21T02:11:41.255Z,60.70
2019-04-21T02:14:12.911Z,62.20
2019-04-21T02:16:36.052Z,62.60
2019-04-21T02:18:59.121Z,62.50
2019-04-21T02:21:31.367Z,62.80
2019-04-21T02:24:14.853Z,62.90
2019-04-21T02:26:33.510Z,62.80
2019-04-21T02:29:08.642Z,63.00
2019-04-21T02:31:44.670Z,63.00
2019-04-21T02:37:00.546Z,64.30
2019-04-21T02:39:35.531Z,64.70
2019-04-21T02:41:51.595Z,65.40
2019-04-21T02:44:16.632Z,66.30
2019-04-21T02:46:42.356Z,66.90
2019-04-21T02:49:22.338Z,67.60
2019-04-21T02:54:41.759Z,68.90
2019-04-21T03:01:56.232Z,71.00
2019-04-21T03:04:30.399Z,70.20
2019-04-21T03:07:01.569Z,70.30
2019-04-21T03:09:37.850Z,70.20
2019-04-21T03:12:04.904Z,71.30
2019-04-21T03:14:40.835Z,71.70
2019-04-21T03:17:03.441Z,71.90
2019-04-21T03:19:36.185Z,72.10
2019-04-21T03:22:07.149Z,72.30
2019-04-21T03:24:39.929Z,72.50
2019-04-21T03:27:09.577Z,71.90
2019-04-21T03:29:46.262Z,72.50
2019-04-21T03:39:35.067Z,75.00
2019-04-21T03:42:11.325Z,75.70
2019-04-21T03:44:30.106Z,76.30
2019-04-21T03:52:03.829Z,78.30
2019-04-21T03:54:37.297Z,78.20
2019-04-21T03:57:19.791Z,78.50
2019-04-21T03:59:29.048Z,79.40
2019-04-21T04:02:12.084Z,80.30
2019-04-21T04:12:18.840Z,82.70
2019-04-21T04:14:55.465Z,82.60
2019-04-21T04:19:58.344Z,83.20
2019-04-21T04:22:33.974Z,82.80
2019-04-21T04:29:59.280Z,82.70
2019-04-21T04:32:28.593Z,84.10
2019-04-21T04:35:03.859Z,83.60
2019-04-21T04:37:32.959Z,83.10
2019-04-21T04:45:17.556Z,82.30
2019-04-21T04:47:34.966Z,81.60
2019-04-21T04:49:59.482Z,81.50
2019-04-21T04:52:37.843Z,82.10
2019-04-21T04:55:08.464Z,83.20
2019-04-21T05:00:26.100Z,83.50
2019-04-21T05:02:48.482Z,83.70
2019-04-21T05:07:44.706Z,85.20
2019-04-21T05:15:09.686Z,86.20
2019-04-21T05:22:47.247Z,87.90
2019-04-21T05:24:55.367Z,88.60
2019-04-21T05:27:29.347Z,88.10
2019-04-21T05:30:17.812Z,88.00
2019-04-21T05:33:00.032Z,88.30
2019-04-21T05:35:47.914Z,87.80
2019-04-21T05:38:16.748Z,88.00
2019-04-21T05:40:40.198Z,88.60
2019-04-21T05:43:26.498Z,87.90
2019-04-21T05:45:52.031Z,86.30
2019-04-21T05:48:31.683Z,86.30
2019-04-21T05:50:53.842Z,87.20
2019-04-21T05:56:08.374Z,85.50
2019-04-21T05:58:31.683Z,85.00
2019-04-21T06:01:28.791Z,83.60
2019-04-21T06:03:44.236Z,82.80
2019-04-21T06:06:14.117Z,82.20
2019-04-21T06:08:46.816Z,81.90
2019-04-21T06:11:14.848Z,82.30
2019-04-21T06:16:07.466Z,82.60
2019-04-21T06:21:16.591Z,80.40
2019-04-21T06:23:42.255Z,81.70
2019-04-21T06:26:26.942Z,82.30
2019-04-21T06:28:46.986Z,82.30
2019-04-21T06:33:44.842Z,81.60
2019-04-21T06:41:32.766Z,82.50
2019-04-21T06:44:08.199Z,81.80
2019-04-21T06:46:35.230Z,81.70
2019-04-21T06:48:59.618Z,79.00
2019-04-21T06:54:04.402Z,78.50
2019-04-21T06:56:38.097Z,76.70
2019-04-21T06:59:01.528Z,76.50
2019-04-21T07:01:36.329Z,78.80
2019-04-21T07:04:13.278Z,79.70
2019-04-21T07:06:36.267Z,78.30
2019-04-21T07:09:21.194Z,78.00
2019-04-21T07:11:31.774Z,78.10
2019-04-21T07:14:22.623Z,77.20
2019-04-21T07:16:41.539Z,75.60
2019-04-21T07:19:14.501Z,77.40
2019-04-21T07:21:33.786Z,75.90
2019-04-21T07:24:09.690Z,76.40
2019-04-21T07:26:36.838Z,77.00
2019-04-21T07:29:22.274Z,75.00
2019-04-21T07:31:45.345Z,75.50
2019-04-21T07:34:12.370Z,72.30
2019-04-21T07:36:48.134Z,72.80
2019-04-21T07:39:00.215Z,72.50
2019-04-21T07:41:32.297Z,71.30
2019-04-21T07:44:00.286Z,73.80
2019-04-21T07:46:26.391Z,74.00
2019-04-21T07:49:06.636Z,72.30
2019-04-21T07:51:50.662Z,68.80
2019-04-21T07:54:29.098Z,67.50
2019-04-21T07:56:34.881Z,68.20
2019-04-21T07:59:22.893Z,65.10
2019-04-21T08:01:51.944Z,66.70
2019-04-21T08:04:40.223Z,67.70
2019-04-21T08:09:18.371Z,65.00
2019-04-21T08:11:50.059Z,65.50
2019-04-21T08:14:23.904Z,64.80
2019-04-21T08:16:57.314Z,65.00
2019-04-21T08:19:25.118Z,64.40
2019-04-21T08:21:57.694Z,62.90
2019-04-21T08:24:19.835Z,61.80
2019-04-21T08:27:00.174Z,62.40
2019-04-21T08:29:37.979Z,61.00
2019-04-21T08:32:02.914Z,59.50
2019-04-21T08:34:29.961Z,59.70
2019-04-21T08:36:51.111Z,57.50
2019-04-21T08:39:33.193Z,57.50
2019-04-21T08:41:56.208Z,56.70
2019-04-21T08:44:33.634Z,56.00
2019-04-21T08:47:00.230Z,54.70
2019-04-21T08:49:26.602Z,54.30
2019-04-21T08:52:21.571Z,51.50
2019-04-21T08:54:28.044Z,51.50
2019-04-21T08:57:07.815Z,50.30
2019-04-21T08:59:43.779Z,50.30
2019-04-21T09:02:19.820Z,49.00
2019-04-21T09:04:41.267Z,46.60
2019-04-21T09:07:19.415Z,44.00
2019-04-21T09:09:48.762Z,45.60
2019-04-21T09:12:17.617Z,46.40
2019-04-21T09:14:47.439Z,46.70
2019-04-21T09:17:10.805Z,43.60
2019-04-21T09:19:53.403Z,40.40
2019-04-21T09:22:12.964Z,42.30
2019-04-21T09:24:45.704Z,41.90
2019-04-21T09:27:14.180Z,41.70
2019-04-21T09:29:35.786Z,40.60
2019-04-21T09:31:59.223Z,38.40
2019-04-21T09:34:33.254Z,37.30
2019-04-21T09:37:13.973Z,37.90
2019-04-21T09:39:30.054Z,36.00
2019-04-21T09:42:02.387Z,35.30
2019-04-21T09:44:33.321Z,34.10
2019-04-21T09:47:01.987Z,34.50
2019-04-21T09:49:31.733Z,34.90
2019-04-21T09:51:59.929Z,33.60
2019-04-21T09:54:33.650Z,35.40
2019-04-21T09:57:05.398Z,34.50
2019-04-21T09:59:33.536Z,34.80
2019-04-21T10:02:11.072Z,34.60
2019-04-21T10:04:31.129Z,32.10
2019-04-21T10:06:59.762Z,32.50
2019-04-21T10:09:29.015Z,32.30
2019-04-21T10:11:57.659Z,31.80
2019-04-21T10:14:26.488Z,30.00
2019-04-21T10:17:00.420Z,31.00
2019-04-21T10:19:30.071Z,31.50
2019-04-21T10:22:00.451Z,29.10
2019-04-21T10:24:28.903Z,29.80
2019-04-21T10:26:58.849Z,29.00
2019-04-21T10:29:29.954Z,28.90
2019-04-21T10:31:57.815Z,28.30
2019-04-21T10:34:27.396Z,27.50
2019-04-21T10:36:56.115Z,27.00
2019-04-21T10:39:45.267Z,25.90
2019-04-21T10:42:15.402Z,23.80
2019-04-21T10:44:45.165Z,23.20
2019-04-21T10:47:14.461Z,22.90
2019-04-21T10:49:44.576Z,22.30
2019-04-21T10:52:15.295Z,23.30
2019-04-21T10:55:06.923Z,22.60
2019-04-21T10:57:16.735Z,22.10
2019-04-21T10:59:47.963Z,23.30
2019-04-21T11:02:26.521Z,21.70
2019-04-21T11:04:56.578Z,21.30
2019-04-21T11:07:55.344Z,21.20
2019-04-21T11:10:16.138Z,21.10
2019-04-21T11:12:47.576Z,21.10
2019-04-21T11:15:15.371Z,20.90
2019-04-21T11:17:45.159Z,21.50
2019-04-21T11:20:15.041Z,21.00
2019-04-21T11:22:43.910Z,21.40
2019-04-21T11:25:12.872Z,21.90
2019-04-21T11:27:42.914Z,20.10
2019-04-21T11:30:11.875Z,21.70
2019-04-21T11:32:42.115Z,20.90
2019-04-21T11:35:10.711Z,20.60
2019-04-21T11:37:39.935Z,19.90
2019-04-21T11:40:12.294Z,19.40
2019-04-21T11:42:41.871Z,21.00
2019-04-21T11:45:14.687Z,20.10
2019-04-21T11:47:48.219Z,20.60
2019-04-21T11:50:17.051Z,20.90
2019-04-21T11:52:47.231Z,20.60
2019-04-21T11:55:16.620Z,19.90
2019-04-21T11:57:48.640Z,20.50
2019-04-21T12:00:17.588Z,20.50
2019-04-21T12:02:46.303Z,20.00
2019-04-21T12:05:15.128Z,19.30
2019-04-21T12:07:45.038Z,19.80
2019-04-21T12:10:13.947Z,19.20
2019-04-21T12:12:43.323Z,19.20
2019-04-21T12:15:13.901Z,19.40
2019-04-21T12:17:43.872Z,19.40
2019-04-21T12:20:13.117Z,20.00
2019-04-21T12:22:43.215Z,19.80
2019-04-21T12:25:13.827Z,18.50
2019-04-21T12:27:43.760Z,18.50
2019-04-21T12:30:13.957Z,18.50
2019-04-21T12:32:44.338Z,18.80
2019-04-21T12:35:15.772Z,19.10
2019-04-21T12:37:44.825Z,19.00
2019-04-21T12:40:14.731Z,19.10
2019-04-21T12:42:43.737Z,19.00
2019-04-21T12:45:15.212Z,19.50
2019-04-21T12:47:44.072Z,19.10
2019-04-21T12:50:32.154Z,19.40
2019-04-21T12:53:00.801Z,19.60
2019-04-21T12:55:31.549Z,20.10
2019-04-21T12:57:59.644Z,20.80
2019-04-21T13:00:28.969Z,19.50
2019-04-21T13:02:58.161Z,19.60
2019-04-21T13:05:27.500Z,19.60
2019-04-21T13:07:57.388Z,19.40
2019-04-21T13:10:26.391Z,19.70
2019-04-21T13:12:56.201Z,19.40
2019-04-21T13:15:25.445Z,19.70
2019-04-21T13:17:54.355Z,20.10
2019-04-21T13:20:23.342Z,19.50
2019-04-21T13:22:52.389Z,19.30
2019-04-21T13:25:21.133Z,19.10
2019-04-21T13:27:49.709Z,19.60
2019-04-21T13:30:20.047Z,19.40
2019-04-21T13:32:49.270Z,19.70
2019-04-21T13:35:19.123Z,19.70
2019-04-21T13:37:50.403Z,19.30
2019-04-21T13:40:53.089Z,18.80
2019-04-21T13:43:08.372Z,19.80
2019-04-21T13:45:37.383Z,19.50
2019-04-21T13:48:06.576Z,20.10
2019-04-21T13:50:35.381Z,19.50
2019-04-21T13:53:04.935Z,20.00
2019-04-21T13:55:36.805Z,20.80
2019-04-21T13:58:04.324Z,21.70
2019-04-21T14:00:33.784Z,21.70
2019-04-21T14:03:02.942Z,21.20
2019-04-21T14:05:32.658Z,22.10
2019-04-21T14:08:03.025Z,21.70
2019-04-21T14:10:33.398Z,22.10
2019-04-21T14:13:02.612Z,22.70
2019-04-21T14:15:32.432Z,23.90
2019-04-21T14:18:02.683Z,23.90
2019-04-21T14:20:31.559Z,24.40
2019-04-21T14:23:13.528Z,24.10
2019-04-21T14:25:30.463Z,24.10
2019-04-21T14:27:59.821Z,24.00
2019-04-21T14:30:30.161Z,24.50
2019-04-21T14:33:00.301Z,24.50
2019-04-21T14:35:29.391Z,24.00
2019-04-21T14:37:58.417Z,24.40
2019-04-21T14:40:29.447Z,24.70
2019-04-21T14:42:58.318Z,24.70
2019-04-21T14:45:32.534Z,24.80
2019-04-21T14:48:15.067Z,24.70
2019-04-21T14:51:04.170Z,24.80
2019-04-21T14:53:34.460Z,25.00
2019-04-21T14:56:03.718Z,25.60
2019-04-21T14:58:32.952Z,24.80
2019-04-21T15:01:04.227Z,24.90
2019-04-21T15:03:34.219Z,24.90
2019-04-21T15:06:03.317Z,24.80
2019-04-21T15:08:33.260Z,25.00
2019-04-21T15:11:03.230Z,25.00
2019-04-21T15:13:32.374Z,25.10
2019-04-21T15:16:01.078Z,24.80
2019-04-21T15:18:30.607Z,25.00
2019-04-21T15:20:59.536Z,25.10
2019-04-21T15:23:30.023Z,24.80
2019-04-21T15:25:59.921Z,25.20
2019-04-21T15:28:31.977Z,25.00
2019-04-21T15:30:58.977Z,24.90
2019-04-21T15:33:28.725Z,25.20
2019-04-21T15:35:57.526Z,24.90
2019-04-21T15:38:27.607Z,25.30
2019-04-21T15:41:00.736Z,25.00
2019-04-21T15:43:26.629Z,25.20
2019-04-21T15:45:55.340Z,25.40
2019-04-21T15:48:24.030Z,25.90
2019-04-21T15:50:52.586Z,26.20
2019-04-21T15:53:25.694Z,26.50
2019-04-21T15:56:02.549Z,26.40
2019-04-21T15:58:42.898Z,26.00
2019-04-21T16:01:25.260Z,25.90
2019-04-21T16:03:56.905Z,25.90
2019-04-21T16:06:25.378Z,25.90
2019-04-21T16:08:57.313Z,26.20
2019-04-21T16:11:25.694Z,26.60
2019-04-21T16:13:55.499Z,26.60
2019-04-21T16:16:26.805Z,26.30
2019-04-21T16:18:54.393Z,26.40
2019-04-21T16:21:24.232Z,26.60
2019-04-21T16:23:54.142Z,26.80
2019-04-21T16:26:22.756Z,27.00
2019-04-21T16:28:51.359Z,26.90
2019-04-21T16:31:20.424Z,27.10
2019-04-21T16:33:49.223Z,27.00
2019-04-21T16:36:18.396Z,27.20
2019-04-21T16:38:49.370Z,27.80
2019-04-21T16:41:18.304Z,27.40
2019-04-21T16:43:47.181Z,27.40
2019-04-21T16:46:15.910Z,27.30
2019-04-21T16:48:45.916Z,27.60
2019-04-21T16:51:15.438Z,27.80
2019-04-21T16:53:46.117Z,27.90
2019-04-21T16:56:22.809Z,28.10
2019-04-21T16:58:54.720Z,28.20
2019-04-21T17:01:29.578Z,28.00
2019-04-21T17:03:58.319Z,28.30
2019-04-21T17:06:27.127Z,28.20
2019-04-21T17:08:56.809Z,28.20
2019-04-21T17:11:30.666Z,28.70
2019-04-21T17:13:56.604Z,28.80
2019-04-21T17:17:03.075Z,28.90
2019-04-21T17:19:05.131Z,28.90
2019-04-21T17:21:27.911Z,29.00
2019-04-21T17:23:56.800Z,29.20
2019-04-21T17:26:26.774Z,29.40
2019-04-21T17:28:56.606Z,29.70
2019-04-21T17:31:26.661Z,29.40
2019-04-21T17:34:02.062Z,29.70
2019-04-21T17:36:27.161Z,29.90
2019-04-21T17:38:55.907Z,29.90
2019-04-21T17:41:33.127Z,30.00
2019-04-21T17:43:56.150Z,30.00
2019-04-21T17:46:36.698Z,30.20
2019-04-21T17:48:55.225Z,30.40
2019-04-21T17:51:25.775Z,30.60
2019-04-21T17:54:02.267Z,30.30
2019-04-21T17:56:53.845Z,30.50
2019-04-21T17:59:28.090Z,30.90
2019-04-21T18:01:48.457Z,31.10
2019-04-21T18:04:18.146Z,31.30
2019-04-21T18:07:08.513Z,31.40
2019-04-21T18:09:51.918Z,31.70
2019-04-21T18:12:16.739Z,31.80
2019-04-21T18:14:30.528Z,31.80
2019-04-21T18:17:00.381Z,32.10
2019-04-21T18:19:34.767Z,32.50
2019-04-21T18:22:17.579Z,33.10
2019-04-21T18:24:55.788Z,32.70
2019-04-21T18:27:19.415Z,33.30
2019-04-21T18:29:52.504Z,33.40
2019-04-21T18:32:26.209Z,33.80
2019-04-21T18:35:11.506Z,34.10
2019-04-21T18:37:47.260Z,34.00
2019-04-21T18:40:21.065Z,34.80
2019-04-21T18:43:16.915Z,35.10
2019-04-21T18:48:17.282Z,35.40
2019-04-21T18:50:46.163Z,35.50
2019-04-21T18:53:24.507Z,35.80
2019-04-21T18:55:46.578Z,36.00
2019-04-21T18:58:13.713Z,36.30
2019-04-21T19:00:44.211Z,36.50
2019-04-21T19:03:14.063Z,36.50
2019-04-21T19:05:49.060Z,36.50
2019-04-21T19:08:25.929Z,36.70
2019-04-21T19:11:01.165Z,37.00
2019-04-21T19:16:22.609Z,37.30
2019-04-21T19:18:43.670Z,37.70
2019-04-21T19:21:04.422Z,38.00
2019-04-21T19:23:41.308Z,38.10
2019-04-21T19:26:11.033Z,37.90
2019-04-21T19:28:36.101Z,38.20
2019-04-21T19:31:11.318Z,38.30
2019-04-21T19:33:29.702Z,38.60
2019-04-21T19:35:45.604Z,38.60
2019-04-21T19:38:17.712Z,39.20
2019-04-21T19:40:56.331Z,40.10
2019-04-21T19:43:38.596Z,40.40
2019-04-21T19:46:23.704Z,40.40
2019-04-21T19:49:04.266Z,40.40
2019-04-21T19:51:22.032Z,40.30
2019-04-21T19:53:49.339Z,40.30
2019-04-21T19:56:07.826Z,40.70
2019-04-21T19:58:40.481Z,40.30
2019-04-21T20:01:07.593Z,40.40
2019-04-21T20:03:36.682Z,39.20
2019-04-21T20:06:16.917Z,38.80
2019-04-21T20:08:46.711Z,40.00
2019-04-21T20:11:28.182Z,40.10
2019-04-21T20:14:13.863Z,40.40
2019-04-21T20:16:30.769Z,41.50
2019-04-21T20:18:43.573Z,41.80
2019-04-21T20:21:08.090Z,42.30
2019-04-21T20:23:39.688Z,42.70
2019-04-21T20:26:09.666Z,42.90
2019-04-21T20:28:51.719Z,43.20
2019-04-21T20:31:27.889Z,43.70
2019-04-21T20:34:00.226Z,44.00
2019-04-21T20:36:31.397Z,44.70
2019-04-21T20:38:48.891Z,45.30
2019-04-21T20:41:22.698Z,45.60
2019-04-21T20:44:00.697Z,45.50
2019-04-21T20:46:25.533Z,45.20
2019-04-21T20:48:52.336Z,45.60
2019-04-21T20:51:28.387Z,45.60
2019-04-21T20:53:53.641Z,45.60
2019-04-21T20:56:19.347Z,45.60
2019-04-21T20:58:55.494Z,46.20
2019-04-21T21:03:56.043Z,46.50
2019-04-21T21:06:26.051Z,46.10
2019-04-21T21:08:55.461Z,45.60
2019-04-21T21:11:29.493Z,45.70
2019-04-21T21:13:58.775Z,47.90
2019-04-21T21:16:35.110Z,50.30
2019-04-21T21:19:11.655Z,48.30
2019-04-21T21:21:29.852Z,48.00
2019-04-21T21:24:00.565Z,48.30
2019-04-21T21:26:31.280Z,47.90
2019-04-21T21:28:54.721Z,48.20
2019-04-21T21:31:33.173Z,48.50
2019-04-21T21:34:11.907Z,48.70
2019-04-21T21:36:33.870Z,48.50
2019-04-21T21:38:59.539Z,48.40
2019-04-21T21:41:22.178Z,48.80
2019-04-21T21:43:51.419Z,49.00
2019-04-21T21:46:35.197Z,49.30
2019-04-21T21:49:01.331Z,49.30
2019-04-21T21:51:29.282Z,49.50
2019-04-21T21:53:46.373Z,49.90
2019-04-21T21:56:16.378Z,50.60
2019-04-21T21:58:47.592Z,50.40
2019-04-21T22:01:20.848Z,50.70
2019-04-21T22:03:47.288Z,51.00
2019-04-21T22:06:21.424Z,51.60
2019-04-21T22:08:48.199Z,52.40
2019-04-21T22:11:18.023Z,52.30
2019-04-21T22:13:54.756Z,52.90
2019-04-21T22:16:19.361Z,53.40
2019-04-21T22:19:11.885Z,53.40
2019-04-21T22:21:36.438Z,53.70
2019-04-21T22:23:55.514Z,54.00
2019-04-21T22:26:18.998Z,54.30
2019-04-21T22:28:47.701Z,54.40
2019-04-21T22:31:21.173Z,54.90
2019-04-21T22:33:50.374Z,55.30
2019-04-21T22:36:31.325Z,55.60
2019-04-21T22:39:05.153Z,56.00
2019-04-21T22:41:26.329Z,56.00
2019-04-21T22:43:51.508Z,56.40
2019-04-21T22:46:18.172Z,56.40
2019-04-21T22:48:55.907Z,56.80
2019-04-21T22:51:23.971Z,56.90
2019-04-21T22:53:50.364Z,57.20
2019-04-21T22:56:23.559Z,57.30
2019-04-21T22:58:48.296Z,57.30
2019-04-21T23:01:27.775Z,57.60
2019-04-21T23:03:54.742Z,57.90
2019-04-21T23:06:23.348Z,58.20
2019-04-21T23:08:49.816Z,58.40
2019-04-21T23:11:19.707Z,58.90
2019-04-21T23:13:55.596Z,59.00
2019-04-21T23:16:23.441Z,59.30
2019-04-21T23:19:07.513Z,59.50
2019-04-21T23:21:30.396Z,59.70
2019-04-21T23:24:04.450Z,60.00
2019-04-21T23:26:37.891Z,62.30
2019-04-21T23:29:09.041Z,64.40
2019-04-21T23:31:41.786Z,64.00
2019-04-21T23:33:50.469Z,63.90
2019-04-21T23:36:24.110Z,64.00
2019-04-21T23:38:51.981Z,65.20
2019-04-21T23:41:19.519Z,65.40
2019-04-21T23:43:55.251Z,66.00
2019-04-21T23:46:25.726Z,67.10
2019-04-21T23:49:03.931Z,67.60
2019-04-21T23:51:32.721Z,68.40
2019-04-21T23:53:49.210Z,68.40
2019-04-21T23:56:23.847Z,69.40
2019-04-21T23:58:54.932Z,70.50
